SWA1198 KABQ-KPHX
Flight info
| Callsign | SWA1198 |
|---|---|
| Flight time | 0h 55m |
| Altitude | 30000 |
| Route | RDRNR3 ZUN EAGUL6 |
| Aircraft | B737/M-SADE2E3GIJ4RWZ/LB1D1 |
Departure
| Time | 2026-05-05 13:30 |
|---|---|
| Airport | Albuquerque International Sunport (KABQ) |
Arrival
| Time | 2026-05-05 14:26 |
|---|---|
| Airport | Phoenix Sky Harbor International Airport (KPHX) |
| Time | Latitude | Longitude | Altitude | Speed | Heading |
|---|---|---|---|---|---|
| 2026-05-05 13:10 | 35.04692 | -106.61538 | 5320 ft | 0 kts | 12° |
| 2026-05-05 13:19 | 35.04682 | -106.61540 | 5312 ft | 3 kts | 12° |
| 2026-05-05 13:19 | 35.04663 | -106.61545 | 5314 ft | 3 kts | 12° |
| 2026-05-05 13:20 | 35.04643 | -106.61551 | 5316 ft | 3 kts | 12° |
| 2026-05-05 13:20 | 35.04623 | -106.61556 | 5313 ft | 3 kts | 12° |
| 2026-05-05 13:20 | 35.04603 | -106.61561 | 5317 ft | 3 kts | 12° |
| 2026-05-05 13:20 | 35.04585 | -106.61566 | 5311 ft | 3 kts | 14° |
| 2026-05-05 13:21 | 35.04568 | -106.61574 | 5315 ft | 3 kts | 44° |
| 2026-05-05 13:21 | 35.04559 | -106.61587 | 5314 ft | 3 kts | 73° |
| 2026-05-05 13:21 | 35.04556 | -106.61608 | 5319 ft | 1 kts | 90° |
| 2026-05-05 13:21 | 35.04556 | -106.61615 | 5311 ft | 0 kts | 90° |
| 2026-05-05 13:24 | 35.04556 | -106.61587 | 5320 ft | 8 kts | 90° |
| 2026-05-05 13:24 | 35.04555 | -106.61471 | 5313 ft | 17 kts | 90° |
| 2026-05-05 13:24 | 35.04574 | -106.61335 | 5314 ft | 16 kts | 62° |
| 2026-05-05 13:25 | 35.04582 | -106.61200 | 5317 ft | 16 kts | 90° |
| 2026-05-05 13:25 | 35.04581 | -106.61054 | 5314 ft | 21 kts | 90° |
| 2026-05-05 13:25 | 35.04579 | -106.60853 | 5316 ft | 25 kts | 90° |
| 2026-05-05 13:25 | 35.04578 | -106.60636 | 5320 ft | 26 kts | 90° |
| 2026-05-05 13:26 | 35.04576 | -106.60425 | 5320 ft | 24 kts | 90° |
| 2026-05-05 13:26 | 35.04575 | -106.60227 | 5320 ft | 23 kts | 90° |
| 2026-05-05 13:26 | 35.04573 | -106.60036 | 5320 ft | 22 kts | 90° |
| 2026-05-05 13:26 | 35.04586 | -106.59845 | 5317 ft | 24 kts | 88° |
| 2026-05-05 13:27 | 35.04585 | -106.59631 | 5320 ft | 26 kts | 90° |
| 2026-05-05 13:27 | 35.04584 | -106.59400 | 5318 ft | 28 kts | 90° |
| 2026-05-05 13:27 | 35.04582 | -106.59161 | 5316 ft | 29 kts | 90° |
| 2026-05-05 13:27 | 35.04581 | -106.58918 | 5320 ft | 29 kts | 90° |
| 2026-05-05 13:28 | 35.04579 | -106.58684 | 5314 ft | 27 kts | 91° |
| 2026-05-05 13:28 | 35.04578 | -106.58466 | 5320 ft | 25 kts | 90° |
| 2026-05-05 13:28 | 35.04576 | -106.58264 | 5320 ft | 23 kts | 90° |
| 2026-05-05 13:28 | 35.04575 | -106.58071 | 5320 ft | 22 kts | 90° |
| 2026-05-05 13:29 | 35.04575 | -106.57884 | 5320 ft | 22 kts | 90° |
| 2026-05-05 13:29 | 35.04572 | -106.57703 | 5320 ft | 21 kts | 90° |
| 2026-05-05 13:29 | 35.04500 | -106.57575 | 5315 ft | 20 kts | 175° |
| 2026-05-05 13:29 | 35.04409 | -106.57678 | 5315 ft | 20 kts | 263° |
| 2026-05-05 13:30 | 35.04409 | -106.57864 | 5312 ft | 38 kts | 270° |
| 2026-05-05 13:30 | 35.04414 | -106.58527 | 5321 ft | 116 kts | 270° |
| 2026-05-05 13:30 | 35.04420 | -106.59778 | 5374 ft | 173 kts | 270° |
| 2026-05-05 13:30 | 35.04361 | -106.61235 | 6401 ft | 163 kts | 263° |
| 2026-05-05 13:31 | 35.04192 | -106.62555 | 7397 ft | 156 kts | 271° |
| 2026-05-05 13:31 | 35.04227 | -106.64006 | 7845 ft | 189 kts | 272° |
| 2026-05-05 13:31 | 35.04250 | -106.65742 | 8140 ft | 221 kts | 271° |
| 2026-05-05 13:31 | 35.04269 | -106.67723 | 8480 ft | 247 kts | 271° |
| 2026-05-05 13:32 | 35.04287 | -106.69893 | 9075 ft | 267 kts | 271° |
| 2026-05-05 13:32 | 35.04306 | -106.72218 | 9909 ft | 278 kts | 271° |
| 2026-05-05 13:32 | 35.04325 | -106.74629 | 10635 ft | 295 kts | 271° |
| 2026-05-05 13:32 | 35.04346 | -106.77272 | 10870 ft | 327 kts | 270° |
| 2026-05-05 13:33 | 35.04369 | -106.80156 | 11190 ft | 351 kts | 270° |
| 2026-05-05 13:33 | 35.04411 | -106.83171 | 11930 ft | 359 kts | 271° |
| 2026-05-05 13:33 | 35.04521 | -106.86224 | 12901 ft | 361 kts | 272° |
| 2026-05-05 13:33 | 35.04642 | -106.89299 | 13807 ft | 366 kts | 271° |
| 2026-05-05 13:34 | 35.04758 | -106.92421 | 14659 ft | 369 kts | 270° |
| 2026-05-05 13:34 | 35.04765 | -106.95543 | 15674 ft | 367 kts | 267° |
| 2026-05-05 13:34 | 35.04672 | -106.98651 | 16680 ft | 366 kts | 265° |
| 2026-05-05 13:34 | 35.04553 | -107.01767 | 17590 ft | 368 kts | 265° |
| 2026-05-05 13:35 | 35.04434 | -107.04904 | 18433 ft | 370 kts | 265° |
| 2026-05-05 13:35 | 35.04324 | -107.08054 | 19166 ft | 372 kts | 265° |
| 2026-05-05 13:35 | 35.04223 | -107.11188 | 19837 ft | 375 kts | 265° |
| 2026-05-05 13:35 | 35.04125 | -107.14384 | 20485 ft | 379 kts | 265° |
| 2026-05-05 13:36 | 35.04027 | -107.17613 | 21124 ft | 381 kts | 265° |
| 2026-05-05 13:36 | 35.03930 | -107.20854 | 21762 ft | 384 kts | 264° |
| 2026-05-05 13:36 | 35.03831 | -107.24118 | 22350 ft | 387 kts | 264° |
| 2026-05-05 13:36 | 35.03729 | -107.27412 | 22900 ft | 390 kts | 264° |
| 2026-05-05 13:37 | 35.03626 | -107.30739 | 23456 ft | 393 kts | 264° |
| 2026-05-05 13:37 | 35.03522 | -107.34088 | 23925 ft | 395 kts | 264° |
| 2026-05-05 13:37 | 35.03418 | -107.37448 | 24432 ft | 396 kts | 263° |
| 2026-05-05 13:37 | 35.03315 | -107.40800 | 24968 ft | 395 kts | 263° |
| 2026-05-05 13:38 | 35.03210 | -107.44156 | 25468 ft | 396 kts | 263° |
| 2026-05-05 13:38 | 35.03104 | -107.47519 | 25923 ft | 397 kts | 263° |
| 2026-05-05 13:38 | 35.02996 | -107.50893 | 26343 ft | 398 kts | 263° |
| 2026-05-05 13:38 | 35.02889 | -107.54229 | 26777 ft | 399 kts | 263° |
| 2026-05-05 13:39 | 35.02779 | -107.57612 | 27262 ft | 398 kts | 263° |
| 2026-05-05 13:39 | 35.02670 | -107.60964 | 27901 ft | 393 kts | 263° |
| 2026-05-05 13:39 | 35.02564 | -107.64269 | 28668 ft | 386 kts | 262° |
| 2026-05-05 13:39 | 35.02458 | -107.67513 | 29468 ft | 380 kts | 262° |
| 2026-05-05 13:40 | 35.02352 | -107.70715 | 29944 ft | 376 kts | 262° |
| 2026-05-05 13:40 | 35.02243 | -107.73899 | 30005 ft | 376 kts | 262° |
| 2026-05-05 13:40 | 35.02021 | -107.80285 | 30042 ft | 375 kts | 262° |
| 2026-05-05 13:41 | 35.01798 | -107.86647 | 30052 ft | 375 kts | 262° |
| 2026-05-05 13:41 | 35.01575 | -107.92957 | 30055 ft | 375 kts | 262° |
| 2026-05-05 13:42 | 35.01346 | -107.99316 | 30033 ft | 376 kts | 262° |
| 2026-05-05 13:42 | 35.01114 | -108.05695 | 30032 ft | 376 kts | 262° |
| 2026-05-05 13:43 | 35.00880 | -108.12068 | 30022 ft | 375 kts | 262° |
| 2026-05-05 13:43 | 35.00642 | -108.18428 | 30015 ft | 375 kts | 261° |
| 2026-05-05 13:44 | 35.00403 | -108.24735 | 30004 ft | 374 kts | 261° |
| 2026-05-05 13:44 | 35.00159 | -108.31084 | 29997 ft | 374 kts | 261° |
| 2026-05-05 13:45 | 34.99912 | -108.37419 | 29996 ft | 374 kts | 261° |
| 2026-05-05 13:45 | 34.99662 | -108.43762 | 29990 ft | 374 kts | 261° |
| 2026-05-05 13:46 | 34.99408 | -108.50106 | 29989 ft | 374 kts | 261° |
| 2026-05-05 13:46 | 34.99151 | -108.56439 | 29991 ft | 373 kts | 261° |
| 2026-05-05 13:47 | 34.98893 | -108.62731 | 30014 ft | 373 kts | 261° |
| 2026-05-05 13:47 | 34.98629 | -108.69068 | 30020 ft | 374 kts | 261° |
| 2026-05-05 13:48 | 34.98362 | -108.75408 | 30025 ft | 374 kts | 260° |
| 2026-05-05 13:48 | 34.98092 | -108.81751 | 30046 ft | 374 kts | 260° |
| 2026-05-05 13:49 | 34.97821 | -108.88050 | 30051 ft | 374 kts | 260° |
| 2026-05-05 13:49 | 34.97545 | -108.94384 | 30051 ft | 374 kts | 260° |
| 2026-05-05 13:50 | 34.97265 | -109.00713 | 30045 ft | 373 kts | 260° |
| 2026-05-05 13:50 | 34.96984 | -109.07024 | 30044 ft | 372 kts | 260° |
| 2026-05-05 13:51 | 34.96694 | -109.13333 | 30021 ft | 371 kts | 258° |
| 2026-05-05 13:51 | 34.95331 | -109.19203 | 30010 ft | 361 kts | 243° |
| 2026-05-05 13:52 | 34.93250 | -109.24802 | 29976 ft | 362 kts | 243° |
| 2026-05-05 13:52 | 34.91166 | -109.30408 | 29961 ft | 363 kts | 243° |
| 2026-05-05 13:53 | 34.89097 | -109.36031 | 29958 ft | 364 kts | 243° |
| 2026-05-05 13:53 | 34.87029 | -109.41666 | 29958 ft | 364 kts | 243° |
| 2026-05-05 13:54 | 34.84979 | -109.47248 | 29960 ft | 363 kts | 243° |
| 2026-05-05 13:54 | 34.82915 | -109.52860 | 29958 ft | 363 kts | 243° |
| 2026-05-05 13:55 | 34.80852 | -109.58460 | 29958 ft | 362 kts | 243° |
| 2026-05-05 13:55 | 34.78785 | -109.64058 | 29957 ft | 361 kts | 243° |
| 2026-05-05 13:56 | 34.76724 | -109.69634 | 29953 ft | 361 kts | 243° |
| 2026-05-05 13:56 | 34.74674 | -109.75176 | 29951 ft | 361 kts | 243° |
| 2026-05-05 13:57 | 34.72607 | -109.80757 | 29950 ft | 361 kts | 243° |
| 2026-05-05 13:57 | 34.70536 | -109.86336 | 29959 ft | 361 kts | 243° |
| 2026-05-05 13:58 | 34.68477 | -109.91874 | 29974 ft | 361 kts | 243° |
| 2026-05-05 13:58 | 34.66404 | -109.97439 | 29982 ft | 361 kts | 243° |
| 2026-05-05 13:59 | 34.63294 | -110.05779 | 30005 ft | 361 kts | 243° |
| 2026-05-05 14:00 | 34.60532 | -110.13166 | 30020 ft | 361 kts | 242° |
| 2026-05-05 14:00 | 34.58466 | -110.18682 | 30020 ft | 361 kts | 242° |
| 2026-05-05 14:01 | 34.56387 | -110.24222 | 30023 ft | 360 kts | 242° |
| 2026-05-05 14:01 | 34.54297 | -110.29782 | 30022 ft | 366 kts | 242° |
| 2026-05-05 14:02 | 34.52153 | -110.35478 | 30002 ft | 374 kts | 242° |
| 2026-05-05 14:02 | 34.49995 | -110.41203 | 29982 ft | 372 kts | 242° |
| 2026-05-05 14:03 | 34.47840 | -110.46903 | 29975 ft | 371 kts | 242° |
| 2026-05-05 14:03 | 34.45701 | -110.52548 | 29964 ft | 370 kts | 242° |
| 2026-05-05 14:04 | 34.43549 | -110.58219 | 29962 ft | 370 kts | 242° |
| 2026-05-05 14:04 | 34.41397 | -110.63881 | 29958 ft | 370 kts | 242° |
| 2026-05-05 14:05 | 34.39241 | -110.69550 | 29966 ft | 370 kts | 242° |
| 2026-05-05 14:05 | 34.37098 | -110.75171 | 29967 ft | 370 kts | 242° |
| 2026-05-05 14:06 | 34.34625 | -110.80619 | 29957 ft | 367 kts | 231° |
| 2026-05-05 14:06 | 34.32952 | -110.82859 | 29953 ft | 348 kts | 227° |
| 2026-05-05 14:06 | 34.31327 | -110.84928 | 29945 ft | 330 kts | 227° |
| 2026-05-05 14:07 | 34.28227 | -110.88874 | 29963 ft | 324 kts | 227° |
| 2026-05-05 14:07 | 34.26665 | -110.90878 | 29577 ft | 327 kts | 227° |
| 2026-05-05 14:07 | 34.25121 | -110.92864 | 29083 ft | 322 kts | 227° |
| 2026-05-05 14:08 | 34.23600 | -110.94825 | 28521 ft | 318 kts | 227° |
| 2026-05-05 14:08 | 34.22100 | -110.96761 | 27955 ft | 314 kts | 227° |
| 2026-05-05 14:08 | 34.20608 | -110.98687 | 27372 ft | 313 kts | 227° |
| 2026-05-05 14:08 | 34.19123 | -111.00602 | 26799 ft | 311 kts | 227° |
| 2026-05-05 14:09 | 34.17645 | -111.02510 | 26215 ft | 310 kts | 227° |
| 2026-05-05 14:09 | 34.16186 | -111.04390 | 25636 ft | 311 kts | 227° |
| 2026-05-05 14:09 | 34.14718 | -111.06279 | 25352 ft | 303 kts | 227° |
| 2026-05-05 14:09 | 34.13290 | -111.08116 | 25120 ft | 294 kts | 227° |
| 2026-05-05 14:10 | 34.11873 | -111.09938 | 24389 ft | 302 kts | 227° |
| 2026-05-05 14:10 | 34.10415 | -111.11811 | 23665 ft | 310 kts | 227° |
| 2026-05-05 14:10 | 34.08930 | -111.13718 | 23042 ft | 312 kts | 227° |
| 2026-05-05 14:10 | 34.07453 | -111.15615 | 22589 ft | 308 kts | 227° |
| 2026-05-05 14:11 | 34.05996 | -111.17484 | 22117 ft | 305 kts | 227° |
| 2026-05-05 14:11 | 34.04559 | -111.19327 | 21591 ft | 304 kts | 227° |
| 2026-05-05 14:11 | 34.03110 | -111.21186 | 20963 ft | 305 kts | 227° |
| 2026-05-05 14:11 | 34.01654 | -111.23051 | 20502 ft | 304 kts | 227° |
| 2026-05-05 14:12 | 34.00212 | -111.24898 | 20046 ft | 302 kts | 227° |
| 2026-05-05 14:12 | 33.98775 | -111.26737 | 19519 ft | 301 kts | 227° |
| 2026-05-05 14:12 | 33.97337 | -111.28577 | 19033 ft | 301 kts | 227° |
| 2026-05-05 14:12 | 33.95903 | -111.30412 | 18556 ft | 300 kts | 227° |
| 2026-05-05 14:13 | 33.94472 | -111.32241 | 18036 ft | 300 kts | 226° |
| 2026-05-05 14:13 | 33.93045 | -111.34065 | 17508 ft | 298 kts | 226° |
| 2026-05-05 14:13 | 33.91643 | -111.35855 | 17016 ft | 296 kts | 226° |
| 2026-05-05 14:13 | 33.90233 | -111.37654 | 16500 ft | 295 kts | 226° |
| 2026-05-05 14:14 | 33.88826 | -111.39449 | 15984 ft | 294 kts | 226° |
| 2026-05-05 14:14 | 33.87377 | -111.41140 | 15503 ft | 291 kts | 219° |
| 2026-05-05 14:14 | 33.85716 | -111.42591 | 14874 ft | 297 kts | 215° |
| 2026-05-05 14:14 | 33.84001 | -111.43995 | 14361 ft | 297 kts | 215° |
| 2026-05-05 14:15 | 33.82309 | -111.45405 | 13902 ft | 296 kts | 216° |
| 2026-05-05 14:15 | 33.80625 | -111.46834 | 13392 ft | 295 kts | 216° |
| 2026-05-05 14:15 | 33.78958 | -111.48260 | 12889 ft | 293 kts | 216° |
| 2026-05-05 14:15 | 33.77322 | -111.49664 | 12429 ft | 290 kts | 216° |
| 2026-05-05 14:16 | 33.75685 | -111.51072 | 11982 ft | 288 kts | 216° |
| 2026-05-05 14:16 | 33.74057 | -111.52470 | 11520 ft | 286 kts | 216° |
| 2026-05-05 14:16 | 33.72446 | -111.53854 | 11073 ft | 283 kts | 215° |
| 2026-05-05 14:16 | 33.70847 | -111.55227 | 10618 ft | 282 kts | 215° |
| 2026-05-05 14:17 | 33.69266 | -111.56585 | 10407 ft | 273 kts | 215° |
| 2026-05-05 14:17 | 33.67751 | -111.57885 | 10265 ft | 263 kts | 215° |
| 2026-05-05 14:17 | 33.66283 | -111.59143 | 10139 ft | 254 kts | 215° |
| 2026-05-05 14:17 | 33.64874 | -111.60350 | 10039 ft | 244 kts | 214° |
| 2026-05-05 14:18 | 33.63484 | -111.61529 | 9697 ft | 245 kts | 214° |
| 2026-05-05 14:18 | 33.62110 | -111.62678 | 9372 ft | 243 kts | 214° |
| 2026-05-05 14:18 | 33.60722 | -111.63838 | 9027 ft | 242 kts | 214° |
| 2026-05-05 14:18 | 33.59339 | -111.64993 | 8682 ft | 242 kts | 214° |
| 2026-05-05 14:19 | 33.57953 | -111.66152 | 8342 ft | 241 kts | 214° |
| 2026-05-05 14:19 | 33.56595 | -111.67287 | 8015 ft | 234 kts | 214° |
| 2026-05-05 14:19 | 33.55282 | -111.68388 | 7670 ft | 227 kts | 214° |
| 2026-05-05 14:19 | 33.54003 | -111.69467 | 7334 ft | 222 kts | 214° |
| 2026-05-05 14:20 | 33.52746 | -111.70529 | 7017 ft | 220 kts | 214° |
| 2026-05-05 14:20 | 33.51497 | -111.71585 | 6705 ft | 220 kts | 214° |
| 2026-05-05 14:20 | 33.50241 | -111.72646 | 6396 ft | 221 kts | 214° |
| 2026-05-05 14:20 | 33.48980 | -111.73710 | 6062 ft | 222 kts | 214° |
| 2026-05-05 14:21 | 33.47715 | -111.74776 | 5732 ft | 222 kts | 214° |
| 2026-05-05 14:21 | 33.46507 | -111.75900 | 5396 ft | 216 kts | 225° |
| 2026-05-05 14:21 | 33.45568 | -111.77211 | 5103 ft | 198 kts | 231° |
| 2026-05-05 14:21 | 33.44737 | -111.78460 | 4837 ft | 186 kts | 231° |
| 2026-05-05 14:22 | 33.43940 | -111.79646 | 4596 ft | 180 kts | 231° |
| 2026-05-05 14:22 | 33.43253 | -111.80866 | 4282 ft | 182 kts | 252° |
| 2026-05-05 14:22 | 33.43097 | -111.82367 | 4058 ft | 182 kts | 262° |
| 2026-05-05 14:22 | 33.42956 | -111.83878 | 3804 ft | 182 kts | 263° |
| 2026-05-05 14:23 | 33.42898 | -111.85386 | 3564 ft | 183 kts | 267° |
| 2026-05-05 14:23 | 33.42887 | -111.86907 | 3307 ft | 182 kts | 268° |
| 2026-05-05 14:23 | 33.42887 | -111.88419 | 3073 ft | 181 kts | 268° |
| 2026-05-05 14:23 | 33.42886 | -111.89916 | 2828 ft | 175 kts | 269° |
| 2026-05-05 14:24 | 33.42886 | -111.91309 | 2622 ft | 157 kts | 268° |
| 2026-05-05 14:24 | 33.42886 | -111.92541 | 2422 ft | 139 kts | 268° |
| 2026-05-05 14:24 | 33.42883 | -111.93664 | 2190 ft | 131 kts | 270° |
| 2026-05-05 14:24 | 33.42900 | -111.94728 | 2096 ft | 132 kts | 267° |
| 2026-05-05 14:25 | 33.42886 | -111.95869 | 1892 ft | 139 kts | 269° |
| 2026-05-05 14:25 | 33.42885 | -111.97028 | 1700 ft | 140 kts | 266° |
| 2026-05-05 14:25 | 33.42881 | -111.98181 | 1485 ft | 145 kts | 268° |
| 2026-05-05 14:25 | 33.42882 | -111.99361 | 1278 ft | 140 kts | 269° |
| 2026-05-05 14:26 | 33.42884 | -112.00514 | 1123 ft | 132 kts | 270° |
| 2026-05-05 14:26 | 33.42886 | -112.01389 | 1125 ft | 76 kts | 270° |
| 2026-05-05 14:26 | 33.42884 | -112.01786 | 1124 ft | 30 kts | 269° |